Time;durP1;ratioP1;P1;durP2;ratioP2;P2;SDS_P1;SDS_P2;PMS_P1;PMS_P2;Temp;Humidity;BMP_temperature;BMP_pressure;BME280_temperature;BME280_humidity;BME280_pressure;Samples;Min_cycle;Max_cycle;Signal;HPM_P1;HPM_P2
2022/09/09 00:01:52;;;;;;;6.97;3.20;;;15.70;99.90;;;;;;5015217;28;20451;-77
2022/09/09 00:04:27;;;;;;;8.27;3.47;;;15.80;99.90;;;;;;5014302;28;20471;-77
2022/09/09 00:07:03;;;;;;;6.90;3.03;;;15.80;99.90;;;;;;5014989;28;20437;-77
2022/09/09 00:09:37;;;;;;;9.37;2.50;;;15.70;99.90;;;;;;5016775;28;20866;-77
2022/09/09 00:12:11;;;;;;;3.80;2.57;;;15.70;99.90;;;;;;5021760;28;20459;-77
2022/09/09 00:14:47;;;;;;;3.77;2.77;;;15.70;99.90;;;;;;5013659;28;20447;-77
2022/09/09 00:17:21;;;;;;;5.70;2.60;;;15.60;99.90;;;;;;5021082;28;20465;-77
2022/09/09 00:19:55;;;;;;;5.27;2.73;;;15.60;99.90;;;;;;5026820;28;20461;-77
2022/09/09 00:22:25;;;;;;;4.90;3.10;;;15.60;99.90;;;;;;5030159;28;20512;-77
2022/09/09 00:24:54;;;;;;;3.27;2.97;;;15.60;99.90;;;;;;5024602;28;20900;-77
2022/09/09 00:27:30;;;;;;;5.07;2.60;;;15.50;99.90;;;;;;5032038;28;20878;-77
2022/09/09 00:30:02;;;;;;;4.77;3.10;;;15.60;99.90;;;;;;5029115;28;20527;-78
2022/09/09 00:32:31;;;;;;;5.10;2.63;;;15.60;99.90;;;;;;5014319;28;20478;-77
2022/09/09 00:35:02;;;;;;;6.20;3.63;;;15.60;99.90;;;;;;5023536;28;20455;-77
2022/09/09 00:37:31;;;;;;;5.93;2.90;;;15.60;99.90;;;;;;5025728;28;20433;-77
2022/09/09 00:40:02;;;;;;;6.60;2.80;;;15.60;99.90;;;;;;5014980;28;20546;-77
2022/09/09 00:42:37;;;;;;;3.93;2.43;;;15.50;99.90;;;;;;5013876;28;21122;-77
2022/09/09 00:45:20;;;;;;;3.07;2.83;;;15.50;99.90;;;;;;5019535;28;20510;-78
2022/09/09 00:47:50;;;;;;;10.63;3.03;;;15.50;99.90;;;;;;5030983;28;20839;-78
2022/09/09 00:50:34;;;;;;;3.93;2.57;;;15.40;99.90;;;;;;5027095;28;20462;-77
2022/09/09 00:53:12;;;;;;;8.17;2.77;;;15.40;99.90;;;;;;5014759;28;20471;-77
2022/09/09 00:55:45;;;;;;;4.17;2.47;;;15.40;99.90;;;;;;5015023;28;20454;-77
2022/09/09 00:58:12;;;;;;;5.20;3.20;;;15.50;99.90;;;;;;5027745;28;20810;-78
2022/09/09 01:00:45;;;;;;;9.63;2.83;;;15.50;99.90;;;;;;5013307;28;20862;-77
2022/09/09 01:03:24;;;;;;;2.80;2.47;;;15.50;99.90;;;;;;5024652;28;20466;-78
2022/09/09 01:06:01;;;;;;;3.27;2.50;;;15.60;99.90;;;;;;5016354;28;21032;-77
2022/09/09 01:08:51;;;;;;;5.47;2.40;;;15.60;99.90;;;;;;5020632;28;20554;-77
2022/09/09 01:11:23;;;;;;;4.30;2.90;;;15.60;99.90;;;;;;5027958;28;20473;-77
2022/09/09 01:13:58;;;;;;;9.03;3.00;;;15.70;99.90;;;;;;5029186;28;20471;-77
2022/09/09 01:16:28;;;;;;;10.93;3.13;;;15.60;99.90;;;;;;5027822;28;20449;-77
2022/09/09 01:18:57;;;;;;;8.07;2.40;;;15.60;99.90;;;;;;5018335;28;20865;-77
2022/09/09 01:21:37;;;;;;;5.67;2.30;;;15.60;99.90;;;;;;5015721;28;20454;-77
2022/09/09 01:24:22;;;;;;;10.67;3.20;;;15.60;99.90;;;;;;5020954;28;21058;-77
2022/09/09 01:26:53;;;;;;;7.70;2.73;;;15.60;99.90;;;;;;5022096;28;20482;-77
2022/09/09 01:29:23;;;;;;;5.37;2.17;;;15.50;99.90;;;;;;5018719;28;20909;-77
2022/09/09 01:31:55;;;;;;;9.03;2.57;;;15.60;99.90;;;;;;5023470;28;20491;-78
2022/09/09 01:34:25;;;;;;;6.93;2.53;;;15.60;99.90;;;;;;5017231;28;20482;-77
2022/09/09 01:36:58;;;;;;;6.00;2.77;;;15.60;99.90;;;;;;5023531;28;20473;-78
2022/09/09 01:39:24;;;;;;;5.53;2.73;;;15.60;99.90;;;;;;5017155;28;20436;-77
2022/09/09 01:41:53;;;;;;;10.30;2.50;;;15.70;99.90;;;;;;5017710;28;20455;-77
2022/09/09 01:44:21;;;;;;;3.33;2.23;;;15.70;99.90;;;;;;5025064;28;20856;-77
2022/09/09 01:46:48;;;;;;;5.20;2.50;;;15.70;99.90;;;;;;5012176;28;20479;-77
2022/09/09 01:49:15;;;;;;;4.33;1.80;;;15.70;99.90;;;;;;5019154;28;20473;-78
2022/09/09 01:51:43;;;;;;;8.83;2.80;;;15.70;99.90;;;;;;5023702;28;20868;-77
2022/09/09 01:54:11;;;;;;;2.10;1.90;;;15.70;99.90;;;;;;5022314;28;20480;-77
2022/09/09 01:56:48;;;;;;;6.00;2.17;;;15.70;99.90;;;;;;5018337;28;20523;-77
2022/09/09 01:59:27;;;;;;;6.07;2.50;;;15.70;99.90;;;;;;5012819;28;20429;-77
2022/09/09 02:02:06;;;;;;;4.60;1.87;;;15.70;99.90;;;;;;5019259;28;20500;-77
2022/09/09 02:04:38;;;;;;;7.07;2.17;;;15.60;99.90;;;;;;5028253;28;20497;-77
2022/09/09 02:07:20;;;;;;;4.00;2.13;;;15.60;99.90;;;;;;5016403;28;20486;-77
2022/09/09 02:09:51;;;;;;;5.10;2.30;;;15.60;99.90;;;;;;5011799;28;20911;-77
2022/09/09 02:12:23;;;;;;;4.87;2.13;;;15.50;99.90;;;;;;5016176;28;21137;-77
2022/09/09 02:14:59;;;;;;;5.50;2.63;;;15.50;99.90;;;;;;5028214;28;20469;-77
2022/09/09 02:17:29;;;;;;;3.13;2.17;;;15.60;99.90;;;;;;5022872;28;20457;-77
2022/09/09 02:20:03;;;;;;;6.60;2.47;;;15.50;99.90;;;;;;5020157;28;20425;-77
2022/09/09 02:22:32;;;;;;;7.40;2.73;;;15.40;99.90;;;;;;5018682;28;20478;-77
2022/09/09 02:25:01;;;;;;;7.40;2.27;;;15.40;99.90;;;;;;5017076;28;20872;-78
2022/09/09 02:27:28;;;;;;;3.53;2.20;;;15.40;99.90;;;;;;5022502;28;21113;-77
2022/09/09 02:30:00;;;;;;;5.13;2.40;;;15.30;99.90;;;;;;5015786;28;20454;-77
2022/09/09 02:32:30;;;;;;;2.77;2.00;;;15.40;99.90;;;;;;5015411;28;20454;-77
2022/09/09 02:35:02;;;;;;;6.73;2.43;;;15.50;99.90;;;;;;5024787;28;20541;-77
2022/09/09 02:37:36;;;;;;;4.30;2.40;;;15.40;99.90;;;;;;5012856;28;20470;-77
2022/09/09 02:40:04;;;;;;;7.50;2.67;;;15.50;99.90;;;;;;5017678;28;20477;-77
2022/09/09 02:42:30;;;;;;;10.00;2.50;;;15.40;99.90;;;;;;5028654;28;20482;-78
2022/09/09 02:44:59;;;;;;;4.80;2.13;;;15.50;99.90;;;;;;5023309;28;20447;-78
2022/09/09 02:47:34;;;;;;;4.53;2.60;;;15.50;99.90;;;;;;5012539;28;20451;-77
2022/09/09 02:50:10;;;;;;;6.80;1.93;;;15.50;99.90;;;;;;5013122;28;20446;-78
2022/09/09 02:52:53;;;;;;;3.50;1.90;;;15.50;99.90;;;;;;5017980;28;20574;-77
2022/09/09 02:55:27;;;;;;;4.57;2.10;;;15.50;99.90;;;;;;5020157;28;20482;-77
2022/09/09 02:57:56;;;;;;;4.83;2.10;;;15.50;99.90;;;;;;5013051;28;20451;-77
2022/09/09 03:00:28;;;;;;;5.13;2.60;;;15.50;99.90;;;;;;5014659;28;20986;-78
2022/09/09 03:02:56;;;;;;;3.73;2.17;;;15.50;99.90;;;;;;5015016;28;20893;-78
2022/09/09 03:05:23;;;;;;;4.57;2.47;;;15.50;99.90;;;;;;5020386;28;20452;-77
2022/09/09 03:07:50;;;;;;;4.97;2.10;;;15.50;99.90;;;;;;5032629;28;20480;-78
2022/09/09 03:10:17;;;;;;;2.33;2.10;;;15.50;99.90;;;;;;5019698;28;20975;-77
2022/09/09 03:12:44;;;;;;;4.17;2.20;;;15.40;99.90;;;;;;5017250;28;20471;-78
2022/09/09 03:15:11;;;;;;;6.23;2.27;;;15.40;99.90;;;;;;5014684;28;20462;-76
2022/09/09 03:17:39;;;;;;;5.20;2.23;;;15.40;99.90;;;;;;5015213;28;20521;-77
2022/09/09 03:20:07;;;;;;;3.00;1.80;;;15.40;99.90;;;;;;5024570;28;20454;-77
2022/09/09 03:22:33;;;;;;;4.83;2.00;;;15.40;99.90;;;;;;5032926;28;21084;-77
2022/09/09 03:25:00;;;;;;;2.80;2.17;;;15.40;99.90;;;;;;5031699;28;20454;-77
2022/09/09 03:27:27;;;;;;;3.13;2.10;;;15.50;99.90;;;;;;5016646;28;20454;-77
2022/09/09 03:29:53;;;;;;;3.20;2.00;;;15.50;99.90;;;;;;5019480;28;20792;-77
2022/09/09 03:32:22;;;;;;;4.57;2.20;;;15.50;99.90;;;;;;5014892;28;20434;-77
2022/09/09 03:34:50;;;;;;;6.77;2.30;;;15.60;99.90;;;;;;5014970;28;20455;-77
2022/09/09 03:37:17;;;;;;;2.93;2.50;;;15.50;99.90;;;;;;5019091;28;20446;-77
2022/09/09 03:39:44;;;;;;;9.30;2.50;;;15.50;99.90;;;;;;5017868;28;20451;-78
2022/09/09 03:42:13;;;;;;;12.40;3.30;;;15.50;99.90;;;;;;5017184;28;20454;-77
2022/09/09 03:44:41;;;;;;;3.10;2.23;;;15.50;99.90;;;;;;5018655;28;20541;-77
2022/09/09 03:47:08;;;;;;;8.53;2.67;;;15.50;99.90;;;;;;5014776;28;20486;-77
2022/09/09 03:49:35;;;;;;;6.83;2.20;;;15.40;99.90;;;;;;5030050;28;20494;-77
2022/09/09 03:52:03;;;;;;;4.53;2.10;;;15.40;99.90;;;;;;5032134;28;20501;-77
2022/09/09 03:54:29;;;;;;;4.70;2.70;;;15.40;99.90;;;;;;5016275;28;20453;-77
2022/09/09 03:56:57;;;;;;;5.67;2.97;;;15.30;99.90;;;;;;5027660;28;20496;-77
2022/09/09 03:59:25;;;;;;;8.10;2.80;;;15.30;99.90;;;;;;5015793;28;20455;-77
2022/09/09 04:01:51;;;;;;;8.07;2.70;;;15.30;99.90;;;;;;5014635;28;20456;-77
2022/09/09 04:04:19;;;;;;;5.17;2.50;;;15.30;99.90;;;;;;5027577;28;21010;-77
2022/09/09 04:06:46;;;;;;;4.40;2.60;;;15.30;99.90;;;;;;5028066;28;20533;-77
2022/09/09 04:09:15;;;;;;;5.53;3.13;;;15.30;99.90;;;;;;5027906;28;20494;-77
2022/09/09 04:11:41;;;;;;;11.40;3.30;;;15.30;99.90;;;;;;5024905;28;20983;-77
2022/09/09 04:14:08;;;;;;;5.17;2.50;;;15.30;99.90;;;;;;5012747;28;20500;-77
2022/09/09 04:16:37;;;;;;;5.27;2.47;;;15.30;99.90;;;;;;5012038;28;20931;-77
2022/09/09 04:19:04;;;;;;;5.30;2.50;;;15.30;99.90;;;;;;5023755;28;20491;-77
2022/09/09 04:21:30;;;;;;;4.83;2.63;;;15.30;99.90;;;;;;5032013;28;21048;-77
2022/09/09 04:23:57;;;;;;;3.07;2.30;;;15.30;99.90;;;;;;5032640;28;20473;-77
2022/09/09 04:26:25;;;;;;;6.40;2.50;;;15.30;99.90;;;;;;5033879;28;20478;-76
2022/09/09 04:28:52;;;;;;;3.20;2.40;;;15.30;99.90;;;;;;5019334;28;20517;-77
2022/09/09 04:31:22;;;;;;;7.40;2.50;;;15.40;99.90;;;;;;5014167;28;20925;-77
2022/09/09 04:33:49;;;;;;;4.37;2.57;;;15.40;99.90;;;;;;5026504;28;20926;-77
2022/09/09 04:36:16;;;;;;;8.77;2.60;;;15.40;99.90;;;;;;5033252;28;20592;-77
2022/09/09 04:38:44;;;;;;;3.30;2.50;;;15.50;99.90;;;;;;5015382;28;20459;-77
2022/09/09 04:41:11;;;;;;;5.53;2.70;;;15.50;99.90;;;;;;5013761;28;20502;-77
2022/09/09 04:43:40;;;;;;;7.83;2.70;;;15.60;99.90;;;;;;5013500;28;21014;-77
2022/09/09 04:46:07;;;;;;;4.23;3.07;;;15.70;99.90;;;;;;5030084;28;20482;-77
2022/09/09 04:48:34;;;;;;;4.37;2.50;;;15.70;99.90;;;;;;5032701;28;20969;-77
2022/09/09 04:51:02;;;;;;;3.30;2.60;;;15.80;99.90;;;;;;5032770;28;20450;-77
2022/09/09 04:53:29;;;;;;;7.10;2.87;;;15.80;99.90;;;;;;5033360;28;20565;-77
2022/09/09 04:56:03;;;;;;;2.70;2.40;;;15.80;99.90;;;;;;5032839;28;20454;-77
2022/09/09 04:58:29;;;;;;;6.80;2.70;;;15.90;99.90;;;;;;5018611;28;20482;-75
2022/09/09 05:01:04;;;;;;;7.67;3.13;;;15.90;99.90;;;;;;5013484;28;20455;-74
2022/09/09 05:03:31;;;;;;;6.70;2.73;;;15.90;99.90;;;;;;5013299;28;20470;-74
2022/09/09 05:06:04;;;;;;;4.80;2.60;;;15.90;99.90;;;;;;5014905;28;20486;-74
2022/09/09 05:08:31;;;;;;;7.00;2.60;;;15.90;99.90;;;;;;5031607;28;20468;-75
2022/09/09 05:10:59;;;;;;;7.17;2.60;;;15.90;99.90;;;;;;5025144;28;20477;-74
2022/09/09 05:13:26;;;;;;;5.93;2.57;;;15.90;99.90;;;;;;5031358;28;20470;-74
2022/09/09 05:15:53;;;;;;;11.73;3.00;;;15.90;99.90;;;;;;5031733;28;20962;-74
2022/09/09 05:18:22;;;;;;;4.40;2.60;;;16.00;99.90;;;;;;5032001;28;20489;-75
2022/09/09 05:20:48;;;;;;;5.33;2.53;;;16.00;99.90;;;;;;5031531;28;20492;-74
2022/09/09 05:23:15;;;;;;;10.97;2.80;;;16.00;99.90;;;;;;5032187;28;20474;-75
2022/09/09 05:25:43;;;;;;;5.40;3.07;;;16.10;99.90;;;;;;5032047;28;20508;-74
2022/09/09 05:28:11;;;;;;;3.47;2.60;;;16.10;99.90;;;;;;5032666;28;20925;-74
2022/09/09 05:30:38;;;;;;;5.67;2.93;;;16.10;99.90;;;;;;5032759;28;20500;-75
2022/09/09 05:33:05;;;;;;;3.33;2.53;;;16.10;99.90;;;;;;5032635;28;20478;-74
2022/09/09 05:35:33;;;;;;;7.10;2.90;;;16.20;99.90;;;;;;5032280;28;20482;-74
2022/09/09 05:38:01;;;;;;;6.63;3.00;;;16.20;99.90;;;;;;5022071;28;20451;-74
2022/09/09 05:40:28;;;;;;;8.13;2.90;;;16.20;99.90;;;;;;5013044;28;20455;-74
2022/09/09 05:42:54;;;;;;;7.33;3.30;;;16.20;99.90;;;;;;5012858;28;20494;-74
2022/09/09 05:45:21;;;;;;;6.70;3.00;;;16.20;99.90;;;;;;5022925;28;20508;-74
2022/09/09 05:47:53;;;;;;;15.50;2.90;;;16.30;99.90;;;;;;5032713;28;20478;-74
2022/09/09 05:50:20;;;;;;;4.93;3.00;;;16.30;99.90;;;;;;5032417;28;20536;-75
2022/09/09 05:52:49;;;;;;;8.37;3.07;;;16.30;99.90;;;;;;5032380;28;20896;-74
2022/09/09 05:55:16;;;;;;;6.40;3.03;;;16.30;99.90;;;;;;5032124;28;20465;-74
2022/09/09 05:57:43;;;;;;;6.17;2.87;;;16.30;99.90;;;;;;5032232;28;20450;-75
2022/09/09 06:00:12;;;;;;;4.57;2.80;;;16.30;99.90;;;;;;5032190;28;20541;-75
2022/09/09 06:02:38;;;;;;;5.97;2.93;;;16.30;99.90;;;;;;5032009;28;20457;-75
2022/09/09 06:05:06;;;;;;;12.43;3.20;;;16.30;99.90;;;;;;5032060;28;20509;-75
2022/09/09 06:07:32;;;;;;;3.10;2.80;;;16.30;99.90;;;;;;5031820;28;20552;-75
2022/09/09 06:10:00;;;;;;;4.60;2.70;;;16.30;99.90;;;;;;5032020;28;20462;-75
2022/09/09 06:12:27;;;;;;;7.27;3.07;;;16.30;99.90;;;;;;5031746;28;20496;-75
2022/09/09 06:14:54;;;;;;;9.83;3.40;;;16.30;99.90;;;;;;5031733;28;20797;-75
2022/09/09 06:17:20;;;;;;;3.83;2.77;;;16.40;99.90;;;;;;5031738;28;20512;-75
2022/09/09 06:19:47;;;;;;;9.50;2.97;;;16.40;99.90;;;;;;5031988;28;20450;-75
2022/09/09 06:22:13;;;;;;;15.00;2.80;;;16.40;99.90;;;;;;5031833;28;20454;-75
2022/09/09 06:24:40;;;;;;;6.07;3.30;;;16.50;99.90;;;;;;5031787;28;20975;-74
2022/09/09 06:27:08;;;;;;;7.87;2.80;;;16.50;99.90;;;;;;5031745;28;20505;-75
2022/09/09 06:29:35;;;;;;;8.93;3.30;;;16.50;99.90;;;;;;5031594;28;20881;-75
2022/09/09 06:32:02;;;;;;;6.87;2.73;;;16.60;99.90;;;;;;5031030;28;20940;-75
2022/09/09 06:34:29;;;;;;;6.87;3.20;;;16.70;99.90;;;;;;5031854;28;20466;-75
2022/09/09 06:36:57;;;;;;;8.50;3.10;;;16.70;99.90;;;;;;5029705;28;20432;-75
2022/09/09 06:39:24;;;;;;;10.90;3.80;;;16.70;99.90;;;;;;5012236;28;20819;-75
2022/09/09 06:41:52;;;;;;;3.30;3.00;;;16.80;99.90;;;;;;5012155;28;20508;-75
2022/09/09 06:44:21;;;;;;;8.03;3.23;;;16.80;99.90;;;;;;5013675;28;20839;-75
2022/09/09 06:46:48;;;;;;;7.43;2.50;;;16.90;99.90;;;;;;5031428;28;20460;-75
2022/09/09 06:49:15;;;;;;;2.53;2.33;;;17.40;99.90;;;;;;5031848;28;20454;-75
2022/09/09 06:51:42;;;;;;;2.93;2.70;;;17.90;99.90;;;;;;5031516;28;20450;-75
2022/09/09 06:54:10;;;;;;;5.80;2.63;;;18.40;99.90;;;;;;5031674;28;20470;-75
2022/09/09 06:56:40;;;;;;;4.80;2.70;;;18.80;99.90;;;;;;5031103;28;20446;-74
2022/09/09 06:59:09;;;;;;;4.77;2.50;;;18.90;99.90;;;;;;5031468;28;20448;-75
2022/09/09 07:01:40;;;;;;;6.03;2.30;;;19.20;99.90;;;;;;5031864;28;20519;-75
2022/09/09 07:04:07;;;;;;;7.90;2.30;;;19.30;99.90;;;;;;5031636;28;20475;-75
2022/09/09 07:06:36;;;;;;;7.03;2.60;;;19.10;99.90;;;;;;5030956;28;20920;-75
2022/09/09 07:09:05;;;;;;;5.03;2.07;;;18.90;99.90;;;;;;5031444;28;21039;-75
2022/09/09 07:11:34;;;;;;;5.73;2.70;;;18.70;99.90;;;;;;5031269;28;20433;-75
2022/09/09 07:14:01;;;;;;;4.80;2.37;;;18.60;99.90;;;;;;5031423;28;20445;-75
2022/09/09 07:16:29;;;;;;;7.53;2.77;;;18.50;99.90;;;;;;5031012;28;20983;-75
2022/09/09 07:18:57;;;;;;;8.50;2.60;;;18.30;99.90;;;;;;5031376;28;20528;-75
2022/09/09 07:21:26;;;;;;;4.63;2.13;;;18.30;99.90;;;;;;5031225;28;20535;-75
2022/09/09 07:23:53;;;;;;;9.13;2.60;;;18.30;99.90;;;;;;5030864;28;20816;-75
2022/09/09 07:26:22;;;;;;;4.03;2.30;;;18.30;99.90;;;;;;5031142;28;20450;-75
2022/09/09 07:28:49;;;;;;;3.53;2.60;;;18.30;99.90;;;;;;5031535;28;20456;-75
2022/09/09 07:31:18;;;;;;;4.77;2.40;;;18.20;99.90;;;;;;5031126;28;20519;-74
2022/09/09 07:33:46;;;;;;;7.50;2.40;;;18.10;99.90;;;;;;5031130;28;21010;-75
2022/09/09 07:36:17;;;;;;;6.30;2.60;;;18.10;99.90;;;;;;5030879;28;20424;-75
2022/09/09 07:38:45;;;;;;;4.10;2.30;;;18.10;99.90;;;;;;5014840;28;20417;-75
2022/09/09 07:41:14;;;;;;;3.97;2.53;;;18.10;99.90;;;;;;5011447;28;20483;-75
2022/09/09 07:43:41;;;;;;;6.77;2.70;;;18.00;99.90;;;;;;5011425;28;20441;-75
2022/09/09 07:46:09;;;;;;;3.53;2.57;;;17.90;99.90;;;;;;5031159;28;20483;-74
2022/09/09 07:48:36;;;;;;;4.93;2.80;;;17.90;99.90;;;;;;5034533;28;20481;-75
2022/09/09 07:51:08;;;;;;;4.23;2.50;;;17.90;99.90;;;;;;5034187;28;20454;-75
2022/09/09 07:53:38;;;;;;;5.83;3.07;;;18.00;99.90;;;;;;5034722;28;20536;-75
2022/09/09 07:56:07;;;;;;;5.47;3.20;;;18.10;99.90;;;;;;5034136;28;20854;-74
2022/09/09 07:58:34;;;;;;;5.60;2.73;;;18.00;99.90;;;;;;5034456;28;20511;-74
2022/09/09 08:01:00;;;;;;;5.47;2.87;;;18.00;99.90;;;;;;5034274;28;20429;-74
2022/09/09 08:03:27;;;;;;;4.50;2.73;;;17.90;99.90;;;;;;5034024;28;20448;-74
2022/09/09 08:05:53;;;;;;;7.50;3.77;;;18.00;99.90;;;;;;5034334;28;20486;-75
2022/09/09 08:08:20;;;;;;;4.50;3.03;;;18.00;99.90;;;;;;5034154;28;20992;-74
2022/09/09 08:10:48;;;;;;;5.43;3.43;;;18.00;99.90;;;;;;5034403;28;20538;-75
2022/09/09 08:13:15;;;;;;;5.13;3.70;;;18.10;99.90;;;;;;5034113;28;20467;-75
2022/09/09 08:15:43;;;;;;;7.90;3.87;;;18.20;99.90;;;;;;5033847;28;20431;-75
2022/09/09 08:18:09;;;;;;;5.50;3.37;;;18.20;99.90;;;;;;5034399;28;20425;-75
2022/09/09 08:20:38;;;;;;;5.53;3.50;;;18.50;99.90;;;;;;5034128;28;20479;-74
2022/09/09 08:23:05;;;;;;;4.70;3.10;;;18.70;99.90;;;;;;5033864;28;20449;-75
2022/09/09 08:25:33;;;;;;;4.87;3.70;;;18.80;99.90;;;;;;5033998;28;21022;-75
2022/09/09 08:28:01;;;;;;;6.93;3.70;;;18.70;99.90;;;;;;5033769;28;20482;-75
2022/09/09 08:30:28;;;;;;;8.03;3.47;;;18.70;99.90;;;;;;5033734;28;20452;-75
2022/09/09 08:32:54;;;;;;;11.63;4.33;;;18.80;99.90;;;;;;5034009;28;20452;-75
2022/09/09 08:35:21;;;;;;;5.00;2.83;;;18.80;99.90;;;;;;5033616;28;20429;-74
2022/09/09 08:37:48;;;;;;;8.10;3.00;;;19.00;99.90;;;;;;5024641;28;20422;-74
2022/09/09 08:40:23;;;;;;;5.00;2.60;;;19.50;99.90;;;;;;5013733;28;20921;-74
2022/09/09 08:42:52;;;;;;;8.10;2.80;;;20.00;99.90;;;;;;5013496;28;20446;-74
2022/09/09 08:45:30;;;;;;;10.30;2.97;;;19.80;99.90;;;;;;5023805;28;20490;-74
2022/09/09 08:48:18;;;;;;;5.67;3.10;;;19.90;99.90;;;;;;5033550;28;20482;-76
2022/09/09 08:50:48;;;;;;;9.13;3.10;;;19.80;99.90;;;;;;5033457;28;20819;-75
2022/09/09 08:53:20;;;;;;;5.13;2.70;;;19.80;99.90;;;;;;5033136;28;20872;-76
2022/09/09 08:55:49;;;;;;;7.40;3.07;;;20.10;99.90;;;;;;5032825;28;20457;-75
2022/09/09 08:58:18;;;;;;;6.57;2.80;;;20.20;99.90;;;;;;5033364;28;20554;-75
2022/09/09 09:01:00;;;;;;;5.07;2.70;;;20.40;99.90;;;;;;5033350;28;20537;-75
2022/09/09 09:03:35;;;;;;;3.90;2.47;;;20.40;99.90;;;;;;5033563;28;20493;-75
2022/09/09 09:06:10;;;;;;;8.53;3.00;;;20.20;99.90;;;;;;5033074;28;20512;-75
2022/09/09 09:08:45;;;;;;;8.27;2.70;;;20.10;99.90;;;;;;5033017;28;20539;-74
2022/09/09 09:11:11;;;;;;;6.00;2.27;;;19.90;99.90;;;;;;5033064;28;20522;-74
2022/09/09 09:13:44;;;;;;;15.97;2.43;;;19.80;99.90;;;;;;5032920;28;20520;-74
2022/09/09 09:16:22;;;;;;;5.10;2.40;;;19.80;99.90;;;;;;5032697;28;20425;-74
2022/09/09 09:18:50;;;;;;;9.03;2.50;;;19.70;99.90;;;;;;5033137;28;20859;-75
2022/09/09 09:21:24;;;;;;;4.67;2.33;;;19.60;99.90;;;;;;5032873;28;20457;-74
2022/09/09 09:23:56;;;;;;;4.90;2.40;;;19.50;99.90;;;;;;5032664;28;20851;-74
2022/09/09 09:26:26;;;;;;;8.23;2.47;;;19.40;99.90;;;;;;5032624;28;20479;-74
2022/09/09 09:28:57;;;;;;;5.03;2.13;;;19.30;99.90;;;;;;5032354;28;21072;-74
2022/09/09 09:31:26;;;;;;;16.10;3.00;;;19.40;99.90;;;;;;5033038;28;20515;-74
2022/09/09 09:33:55;;;;;;;7.50;2.57;;;19.30;99.90;;;;;;5032779;28;20466;-74
2022/09/09 09:36:25;;;;;;;8.43;2.40;;;19.20;99.90;;;;;;5032283;28;20483;-74
2022/09/09 09:38:55;;;;;;;8.03;2.30;;;19.10;99.90;;;;;;5014919;28;20847;-74
2022/09/09 09:41:34;;;;;;;3.30;2.50;;;19.00;99.90;;;;;;5012492;28;20430;-74
2022/09/09 09:44:02;;;;;;;5.17;2.27;;;19.10;99.90;;;;;;5013036;28;20525;-75
2022/09/09 09:46:30;;;;;;;4.63;2.00;;;19.10;99.90;;;;;;5032021;28;21003;-74
2022/09/09 09:49:01;;;;;;;2.43;2.00;;;19.10;99.90;;;;;;5032405;28;20548;-74
2022/09/09 09:51:30;;;;;;;4.70;2.33;;;19.20;99.90;;;;;;5032349;28;20461;-74
2022/09/09 09:54:09;;;;;;;10.30;2.37;;;19.50;99.90;;;;;;5032469;28;20495;-74
2022/09/09 09:56:36;;;;;;;4.50;2.30;;;19.90;99.90;;;;;;5032410;28;20833;-74
2022/09/09 09:59:03;;;;;;;8.57;2.50;;;20.20;99.90;;;;;;5032202;28;20458;-74
2022/09/09 10:01:33;;;;;;;4.60;1.77;;;20.40;99.90;;;;;;5032579;28;20453;-74
2022/09/09 10:04:01;;;;;;;4.33;1.90;;;20.50;99.90;;;;;;5032126;28;20560;-74
2022/09/09 10:06:33;;;;;;;4.47;2.00;;;20.80;99.90;;;;;;5031368;28;20537;-74
2022/09/09 10:09:01;;;;;;;4.63;2.10;;;21.00;99.90;;;;;;5031676;28;20482;-74
2022/09/09 10:11:42;;;;;;;2.70;2.07;;;21.30;99.90;;;;;;5032042;28;20460;-74
2022/09/09 10:14:18;;;;;;;6.37;2.10;;;21.30;99.90;;;;;;5031936;28;20473;-74
2022/09/09 10:20:25;;;;;;;6.83;2.20;;;21.70;99.90;;;;;;5032338;28;20456;-74
2022/09/09 10:23:01;;;;;;;5.53;1.80;;;21.80;99.90;;;;;;5031734;28;20551;-74
2022/09/09 10:25:38;;;;;;;4.83;1.80;;;22.00;99.90;;;;;;5031821;28;20484;-74
2022/09/09 10:28:27;;;;;;;4.30;1.87;;;22.40;99.90;;;;;;5031760;28;20481;-75
2022/09/09 10:31:05;;;;;;;18.60;2.17;;;22.70;99.90;;;;;;5031798;28;20930;-75
2022/09/09 10:33:37;;;;;;;12.13;1.80;;;22.70;99.90;;;;;;5031538;28;20547;-74
2022/09/09 10:36:13;;;;;;;4.57;1.60;;;22.50;99.90;;;;;;5031638;28;20504;-74
2022/09/09 10:38:43;;;;;;;6.10;1.73;;;22.50;99.90;;;;;;5015808;28;20830;-74
2022/09/09 10:41:37;;;;;;;7.87;1.97;;;22.70;99.90;;;;;;5011767;28;20979;-74
2022/09/09 10:44:18;;;;;;;3.53;2.00;;;23.10;99.90;;;;;;5011818;28;20482;-74
2022/09/09 10:47:00;;;;;;;5.77;2.40;;;23.10;99.90;;;;;;5031535;28;20511;-74
2022/09/09 10:49:47;;;;;;;10.80;2.30;;;22.80;99.90;;;;;;5031334;28;20486;-74
2022/09/09 10:52:22;;;;;;;7.47;2.93;;;22.40;99.90;;;;;;5031312;28;20446;-74
2022/09/09 10:54:58;;;;;;;4.53;2.30;;;21.90;99.90;;;;;;5031607;28;21000;-74
2022/09/09 10:57:31;;;;;;;9.10;2.60;;;21.60;99.90;;;;;;5031541;28;20450;-74
2022/09/09 11:00:04;;;;;;;5.43;2.70;;;21.30;99.90;;;;;;5031405;28;20821;-74
2022/09/09 11:02:32;;;;;;;7.43;2.43;;;21.00;99.90;;;;;;5031259;28;20974;-74
2022/09/09 11:05:04;;;;;;;5.40;2.03;;;20.80;99.90;;;;;;5031312;28;20450;-74
2022/09/09 11:07:38;;;;;;;9.07;2.60;;;20.70;99.90;;;;;;5031366;28;20464;-74
2022/09/09 11:10:16;;;;;;;7.27;2.60;;;20.40;99.90;;;;;;5031498;28;20840;-74
2022/09/09 11:12:47;;;;;;;4.37;2.50;;;20.10;99.90;;;;;;5031503;28;20556;-74
2022/09/09 11:15:21;;;;;;;7.40;3.10;;;20.10;99.90;;;;;;5030970;28;20857;-74
2022/09/09 11:17:51;;;;;;;7.90;2.90;;;20.00;99.90;;;;;;5031508;28;20863;-74
2022/09/09 11:20:17;;;;;;;7.33;2.50;;;19.90;99.90;;;;;;5035117;28;20500;-74
2022/09/09 11:22:49;;;;;;;5.90;3.10;;;19.80;99.90;;;;;;5034971;28;20448;-74
2022/09/09 11:25:19;;;;;;;10.90;2.60;;;20.00;99.90;;;;;;5034755;28;20501;-74
2022/09/09 11:28:00;;;;;;;6.60;2.40;;;20.30;99.90;;;;;;5035183;28;20501;-74
2022/09/09 11:30:37;;;;;;;7.10;2.70;;;20.90;99.90;;;;;;5035227;28;20442;-74
2022/09/09 11:33:24;;;;;;;10.07;2.63;;;21.30;99.90;;;;;;5034786;28;20523;-74
2022/09/09 11:36:12;;;;;;;4.30;2.30;;;21.30;99.90;;;;;;5034523;28;20798;-74
2022/09/09 11:38:46;;;;;;;5.97;2.80;;;20.70;99.90;;;;;;5018681;28;20861;-74
2022/09/09 11:41:14;;;;;;;4.07;2.40;;;20.40;99.90;;;;;;5015030;28;20951;-74
2022/09/09 11:43:44;;;;;;;11.07;3.00;;;20.10;99.90;;;;;;5014890;28;20475;-75
2022/09/09 11:46:11;;;;;;;7.23;2.47;;;19.90;99.90;;;;;;5031771;28;20940;-74
2022/09/09 11:48:43;;;;;;;13.13;3.13;;;19.70;99.90;;;;;;5034636;28;20601;-74
2022/09/09 11:51:12;;;;;;;5.47;2.33;;;19.70;99.90;;;;;;5034805;28;20458;-74
2022/09/09 11:53:50;;;;;;;6.77;3.00;;;19.60;99.90;;;;;;5034362;28;20495;-74
2022/09/09 11:56:27;;;;;;;10.40;3.10;;;19.60;99.90;;;;;;5034367;28;20480;-74
2022/09/09 11:59:00;;;;;;;9.37;2.93;;;19.90;99.90;;;;;;5034340;28;20900;-75
2022/09/09 12:01:38;;;;;;;5.67;2.27;;;20.20;99.90;;;;;;5034497;28;20429;-75
2022/09/09 12:04:33;;;;;;;3.53;2.23;;;20.40;99.90;;;;;;5034213;28;20470;-74
2022/09/09 12:07:03;;;;;;;8.17;2.60;;;20.40;99.90;;;;;;5033978;28;20959;-74
2022/09/09 12:09:44;;;;;;;4.77;2.50;;;20.40;99.90;;;;;;5034013;28;21006;-74
2022/09/09 12:12:28;;;;;;;4.03;2.20;;;20.30;99.90;;;;;;5034198;28;20516;-75
2022/09/09 12:15:01;;;;;;;4.67;2.43;;;20.30;99.90;;;;;;5032990;28;20470;-74
2022/09/09 12:17:29;;;;;;;9.03;2.63;;;20.30;99.90;;;;;;5033929;28;20442;-74
2022/09/09 12:20:12;;;;;;;8.80;2.70;;;20.30;99.90;;;;;;5034260;28;20432;-74
2022/09/09 12:22:57;;;;;;;3.07;1.90;;;20.50;99.90;;;;;;5034137;28;20465;-74
2022/09/09 12:25:35;;;;;;;3.10;1.63;;;20.30;99.90;;;;;;5033761;28;20478;-74
2022/09/09 12:28:10;;;;;;;6.20;1.70;;;20.30;99.90;;;;;;5033724;28;20520;-74
2022/09/09 12:30:47;;;;;;;10.83;1.90;;;20.30;99.90;;;;;;5033121;28;20442;-74
2022/09/09 12:33:17;;;;;;;4.97;1.80;;;20.30;99.90;;;;;;5033736;28;20543;-74
2022/09/09 12:35:48;;;;;;;2.00;1.80;;;20.40;99.90;;;;;;5033555;28;20909;-74
2022/09/09 12:38:19;;;;;;;5.10;1.67;;;20.60;99.90;;;;;;5020991;28;20451;-74
2022/09/09 12:40:55;;;;;;;2.53;1.70;;;20.70;99.90;;;;;;5014182;28;20458;-74
2022/09/09 12:43:23;;;;;;;5.33;1.73;;;20.80;99.90;;;;;;5013868;28;20470;-74
2022/09/09 12:45:56;;;;;;;4.93;1.83;;;20.70;99.90;;;;;;5027683;28;20970;-74
2022/09/09 12:48:30;;;;;;;3.53;1.30;;;20.80;99.90;;;;;;5033332;28;21037;-74
2022/09/09 12:50:57;;;;;;;2.23;1.30;;;21.10;99.90;;;;;;5033168;28;20462;-74
2022/09/09 12:53:26;;;;;;;5.27;1.57;;;21.70;99.90;;;;;;5033467;28;20821;-75
2022/09/09 12:55:57;;;;;;;3.83;1.50;;;22.00;99.90;;;;;;5033226;28;20424;-74
2022/09/09 12:58:25;;;;;;;2.60;1.40;;;21.70;99.90;;;;;;5033447;28;20450;-74
2022/09/09 13:00:56;;;;;;;4.20;1.70;;;21.50;99.90;;;;;;5033141;28;20450;-75
2022/09/09 13:03:24;;;;;;;4.60;1.53;;;21.30;99.90;;;;;;5032994;28;20479;-74
2022/09/09 13:05:51;;;;;;;6.33;1.60;;;21.10;99.90;;;;;;5032781;28;21022;-74
2022/09/09 13:08:20;;;;;;;2.57;1.20;;;20.90;99.90;;;;;;5032987;28;20441;-75